Time;durP1;ratioP1;P1;durP2;ratioP2;P2;SDS_P1;SDS_P2;PMS_P1;PMS_P2;Temp;Humidity;BMP_temperature;BMP_pressure;BME280_temperature;BME280_humidity;BME280_pressure;Samples;Min_cycle;Max_cycle;Signal;HPM_P1;HPM_P2
2022/05/05 00:01:51;;;;;;;14.40;10.17;;;11.30;99.90;;;;;;5016604;28;20552;-44
2022/05/05 00:04:19;;;;;;;16.43;7.83;;;11.30;99.90;;;;;;5016669;28;20223;-41
2022/05/05 00:06:45;;;;;;;14.67;7.90;;;11.30;99.90;;;;;;5016737;28;20208;-42
2022/05/05 00:09:10;;;;;;;12.83;6.27;;;11.30;99.90;;;;;;5016515;28;20184;-41
2022/05/05 00:14:23;;;;;;;12.53;6.50;;;11.20;99.90;;;;;;5018080;28;20180;-43
2022/05/05 00:16:49;;;;;;;13.30;6.20;;;11.30;99.90;;;;;;5018219;28;20200;-40
2022/05/05 00:19:15;;;;;;;12.43;6.93;;;11.30;99.90;;;;;;5016797;28;20181;-39
2022/05/05 00:21:41;;;;;;;11.50;6.50;;;11.30;99.90;;;;;;5016078;28;20185;-39
2022/05/05 00:24:07;;;;;;;11.97;6.10;;;11.30;99.90;;;;;;5016034;28;20248;-40
2022/05/05 00:26:33;;;;;;;13.63;6.50;;;11.30;99.90;;;;;;5015982;28;20684;-39
2022/05/05 00:28:59;;;;;;;9.33;5.83;;;11.30;99.90;;;;;;5015933;28;20212;-40
2022/05/05 00:31:24;;;;;;;10.87;6.50;;;11.20;99.90;;;;;;5016368;28;20562;-39
2022/05/05 00:33:50;;;;;;;9.60;6.70;;;11.30;99.90;;;;;;5016020;28;20584;-41
2022/05/05 00:36:16;;;;;;;12.57;7.23;;;11.20;99.90;;;;;;5015605;28;20190;-39
2022/05/05 00:38:41;;;;;;;17.60;7.60;;;11.20;99.90;;;;;;5016097;28;20199;-38
2022/05/05 00:41:08;;;;;;;14.57;8.17;;;11.20;99.90;;;;;;5015755;28;20181;-41
2022/05/05 00:43:35;;;;;;;11.87;6.90;;;11.20;99.90;;;;;;5015976;28;20235;-38
2022/05/05 00:46:01;;;;;;;13.60;7.83;;;11.20;99.90;;;;;;5015687;28;20196;-40
2022/05/05 00:48:27;;;;;;;11.73;7.60;;;11.20;99.90;;;;;;5015859;28;20689;-41
2022/05/05 00:50:54;;;;;;;13.47;7.83;;;11.20;99.90;;;;;;5015543;28;20308;-39
2022/05/05 00:53:20;;;;;;;12.80;7.40;;;11.20;99.90;;;;;;5015845;28;20180;-38
2022/05/05 00:55:46;;;;;;;16.07;7.60;;;11.20;99.90;;;;;;5014321;28;20174;-38
2022/05/05 00:58:14;;;;;;;14.77;7.53;;;11.20;99.90;;;;;;5015594;28;20201;-36
2022/05/05 01:00:39;;;;;;;13.23;8.30;;;11.20;99.90;;;;;;5015697;28;20188;-42
2022/05/05 01:03:08;;;;;;;15.27;8.43;;;11.20;99.90;;;;;;5015412;28;20589;-41
2022/05/05 01:05:36;;;;;;;15.40;8.40;;;11.20;99.90;;;;;;5015343;28;20283;-39
2022/05/05 01:08:02;;;;;;;12.40;7.50;;;11.20;99.90;;;;;;5015422;28;20215;-38
2022/05/05 01:10:28;;;;;;;16.13;9.03;;;11.20;99.90;;;;;;5015055;28;20212;-41
2022/05/05 01:12:54;;;;;;;14.13;8.33;;;11.20;99.90;;;;;;5015199;28;20186;-40
2022/05/05 01:15:20;;;;;;;14.97;7.80;;;11.20;99.90;;;;;;5015234;28;20542;-38
2022/05/05 01:17:46;;;;;;;15.23;8.20;;;11.20;99.90;;;;;;5015074;28;20197;-40
2022/05/05 01:20:22;;;;;;;14.70;8.60;;;11.20;99.90;;;;;;5015323;28;20172;-41
2022/05/05 01:22:49;;;;;;;14.33;8.90;;;11.10;99.90;;;;;;5015302;28;20164;-41
2022/05/05 01:28:11;;;;;;;13.53;8.60;;;11.10;99.90;;;;;;5014959;28;20250;-41
2022/05/05 01:30:38;;;;;;;15.77;7.70;;;11.10;99.90;;;;;;5015275;28;20200;-38
2022/05/05 01:33:14;;;;;;;13.47;7.40;;;11.10;99.90;;;;;;5014780;28;20176;-38
2022/05/05 01:35:41;;;;;;;16.70;8.83;;;11.10;99.90;;;;;;5014992;28;20675;-40
2022/05/05 01:38:12;;;;;;;14.00;8.40;;;11.10;99.90;;;;;;5015417;28;20296;-40
2022/05/05 01:40:39;;;;;;;13.47;8.07;;;11.00;99.90;;;;;;5014829;28;20173;-40
2022/05/05 01:43:06;;;;;;;13.37;8.03;;;10.90;99.90;;;;;;5014849;28;20266;-40
2022/05/05 01:45:32;;;;;;;14.53;8.20;;;10.90;99.90;;;;;;5014407;28;20250;-38
2022/05/05 01:47:58;;;;;;;15.30;8.67;;;10.90;99.90;;;;;;5014613;28;20208;-42
2022/05/05 01:50:24;;;;;;;24.10;9.20;;;10.80;99.90;;;;;;5014595;28;20211;-41
2022/05/05 01:52:50;;;;;;;18.47;8.13;;;10.80;99.90;;;;;;5015774;28;20531;-45
2022/05/05 01:55:15;;;;;;;14.70;8.77;;;10.70;99.90;;;;;;5017679;28;20187;-47
2022/05/05 01:57:41;;;;;;;13.47;8.93;;;10.70;99.90;;;;;;5018204;28;20210;-46
2022/05/05 02:00:08;;;;;;;15.10;8.70;;;10.70;99.90;;;;;;5018515;28;20660;-45
2022/05/05 02:02:33;;;;;;;16.70;8.90;;;10.70;99.90;;;;;;5018010;28;20522;-45
2022/05/05 02:04:59;;;;;;;17.17;9.17;;;10.60;99.90;;;;;;5017525;28;20180;-43
2022/05/05 02:07:25;;;;;;;15.37;9.10;;;10.60;99.90;;;;;;5017571;28;20286;-43
2022/05/05 02:09:50;;;;;;;17.10;8.47;;;10.60;99.90;;;;;;5017666;28;20228;-45
2022/05/05 02:12:16;;;;;;;12.93;8.53;;;10.50;99.90;;;;;;5018458;28;20188;-46
2022/05/05 02:14:41;;;;;;;14.63;9.13;;;10.50;99.90;;;;;;5017866;28;20172;-47
2022/05/05 02:17:07;;;;;;;15.57;9.53;;;10.50;99.90;;;;;;5017504;28;20222;-45
2022/05/05 02:19:32;;;;;;;14.47;9.17;;;10.50;99.90;;;;;;5017569;28;20644;-45
2022/05/05 02:21:58;;;;;;;18.23;9.37;;;10.40;99.90;;;;;;5017223;28;20276;-47
2022/05/05 02:24:24;;;;;;;16.00;8.73;;;10.40;99.90;;;;;;5017536;28;20177;-46
2022/05/05 02:26:49;;;;;;;17.87;9.50;;;10.30;99.90;;;;;;5017771;28;20249;-47
2022/05/05 02:29:15;;;;;;;20.33;9.13;;;10.30;99.90;;;;;;5017798;28;20178;-47
2022/05/05 02:31:40;;;;;;;13.40;8.67;;;10.30;99.90;;;;;;5018337;28;20233;-46
2022/05/05 02:34:08;;;;;;;27.67;9.90;;;10.30;99.90;;;;;;5018436;28;20229;-45
2022/05/05 02:39:22;;;;;;;18.20;9.87;;;10.20;99.90;;;;;;5019236;28;20170;-44
2022/05/05 02:41:48;;;;;;;20.17;9.83;;;10.10;99.90;;;;;;5019434;28;20574;-45
2022/05/05 02:44:14;;;;;;;19.73;10.00;;;10.10;99.90;;;;;;5018923;28;20180;-43
2022/05/05 02:46:40;;;;;;;18.10;9.43;;;10.10;99.90;;;;;;5018966;28;20348;-44
2022/05/05 02:49:05;;;;;;;18.13;9.23;;;10.10;99.90;;;;;;5019203;28;20666;-43
2022/05/05 02:51:31;;;;;;;18.87;10.30;;;10.00;99.90;;;;;;5019024;28;20206;-46
2022/05/05 02:56:41;;;;;;;19.37;10.57;;;10.00;99.90;;;;;;5019005;28;20366;-44
2022/05/05 02:59:06;;;;;;;24.77;11.67;;;9.90;99.90;;;;;;5018599;28;20254;-45
2022/05/05 03:01:32;;;;;;;16.33;10.50;;;9.90;99.90;;;;;;5018862;28;20238;-46
2022/05/05 03:03:58;;;;;;;16.23;10.17;;;9.90;99.90;;;;;;5019350;28;20231;-45
2022/05/05 03:06:24;;;;;;;18.57;10.70;;;9.80;99.90;;;;;;5019450;28;20182;-44
2022/05/05 03:08:49;;;;;;;17.43;10.70;;;9.80;99.90;;;;;;5018793;28;20640;-43
2022/05/05 03:11:15;;;;;;;19.97;11.00;;;9.70;99.90;;;;;;5019082;28;20208;-45
2022/05/05 03:13:40;;;;;;;19.00;11.00;;;9.70;99.90;;;;;;5018626;28;20265;-45
2022/05/05 03:16:06;;;;;;;19.17;10.77;;;9.70;99.90;;;;;;5018313;28;20180;-45
2022/05/05 03:18:32;;;;;;;25.37;11.17;;;9.60;99.90;;;;;;5020512;28;20680;-43
2022/05/05 03:20:58;;;;;;;16.27;10.40;;;9.60;99.90;;;;;;5022774;28;20253;-44
2022/05/05 03:23:23;;;;;;;17.97;11.17;;;9.60;99.90;;;;;;5023512;28;20635;-44
2022/05/05 03:25:49;;;;;;;16.03;10.27;;;9.50;99.90;;;;;;5023494;28;20700;-44
2022/05/05 03:28:14;;;;;;;17.00;10.37;;;9.50;99.90;;;;;;5022879;28;20221;-44
2022/05/05 03:30:40;;;;;;;22.40;10.10;;;9.50;99.90;;;;;;5022775;28;20215;-44
2022/05/05 03:33:09;;;;;;;18.33;10.10;;;9.40;99.90;;;;;;5022936;28;20671;-44
2022/05/05 03:35:35;;;;;;;18.03;9.70;;;9.40;99.90;;;;;;5023139;28;20183;-44
2022/05/05 03:38:00;;;;;;;18.43;10.03;;;9.40;99.90;;;;;;5021194;28;20264;-45
2022/05/05 03:40:26;;;;;;;17.73;9.97;;;9.40;99.90;;;;;;5022823;28;20182;-44
2022/05/05 03:42:51;;;;;;;17.13;10.13;;;9.30;99.90;;;;;;5023582;28;20197;-45
2022/05/05 03:45:17;;;;;;;17.97;10.20;;;9.20;99.90;;;;;;5023591;28;20180;-45
2022/05/05 03:47:42;;;;;;;17.50;9.77;;;9.20;99.90;;;;;;5024409;28;20673;-45
2022/05/05 03:50:09;;;;;;;15.03;9.17;;;9.10;99.90;;;;;;5024491;28;20232;-42
2022/05/05 03:52:34;;;;;;;15.40;9.03;;;9.10;99.90;;;;;;5023808;28;20190;-45
2022/05/05 03:55:00;;;;;;;12.80;9.17;;;9.00;99.90;;;;;;5025168;28;20177;-44
2022/05/05 03:57:26;;;;;;;14.60;8.83;;;8.90;99.90;;;;;;5025835;28;20229;-44
2022/05/05 03:59:51;;;;;;;16.30;9.43;;;8.90;99.90;;;;;;5026479;28;20271;-45
2022/05/05 04:02:17;;;;;;;17.10;9.73;;;8.80;99.90;;;;;;5025000;28;20191;-45
2022/05/05 04:04:43;;;;;;;16.47;10.07;;;8.70;99.90;;;;;;5020583;28;20626;-44
2022/05/05 04:07:08;;;;;;;18.87;10.40;;;8.70;99.90;;;;;;5020800;28;20260;-45
2022/05/05 04:09:34;;;;;;;18.97;11.20;;;8.70;99.90;;;;;;5019678;28;20178;-44
2022/05/05 04:11:59;;;;;;;15.40;9.90;;;8.60;99.90;;;;;;5019389;28;20517;-45
2022/05/05 04:14:25;;;;;;;16.40;9.83;;;8.60;99.90;;;;;;5018759;28;20221;-43
2022/05/05 04:16:51;;;;;;;19.13;10.33;;;8.60;99.90;;;;;;5018847;28;20233;-43
2022/05/05 04:19:17;;;;;;;18.60;9.50;;;8.60;99.90;;;;;;5018505;28;20627;-47
2022/05/05 04:21:42;;;;;;;13.97;9.23;;;8.60;99.90;;;;;;5018284;28;20185;-43
2022/05/05 04:24:08;;;;;;;23.13;10.63;;;8.60;99.90;;;;;;5020317;28;20219;-44
2022/05/05 04:26:34;;;;;;;17.73;9.70;;;8.60;99.90;;;;;;5018868;28;20205;-43
2022/05/05 04:29:01;;;;;;;15.40;9.53;;;8.60;99.90;;;;;;5017907;28;20192;-47
2022/05/05 04:31:29;;;;;;;16.63;9.03;;;8.60;99.90;;;;;;5017985;28;20217;-44
2022/05/05 04:33:55;;;;;;;16.93;9.47;;;8.60;99.90;;;;;;5018718;28;20363;-46
2022/05/05 04:36:20;;;;;;;21.23;9.63;;;8.60;99.90;;;;;;5017345;28;20213;-46
2022/05/05 04:38:46;;;;;;;17.27;9.90;;;8.60;99.90;;;;;;5018005;28;20205;-46
2022/05/05 04:41:12;;;;;;;16.40;9.70;;;8.60;99.90;;;;;;5017491;28;20208;-46
2022/05/05 04:43:37;;;;;;;16.80;9.57;;;8.60;99.90;;;;;;5017484;28;20243;-44
2022/05/05 04:46:03;;;;;;;18.73;10.07;;;8.50;99.90;;;;;;5017464;28;20197;-43
2022/05/05 04:48:29;;;;;;;13.67;8.67;;;8.50;99.90;;;;;;5017085;28;20698;-44
2022/05/05 04:50:54;;;;;;;16.57;10.10;;;8.50;99.90;;;;;;5017758;28;20634;-43
2022/05/05 04:53:20;;;;;;;17.83;8.40;;;8.50;99.90;;;;;;5019102;28;20257;-45
2022/05/05 04:55:45;;;;;;;13.47;8.67;;;8.50;99.90;;;;;;5018913;28;20763;-43
2022/05/05 04:58:11;;;;;;;15.07;8.83;;;8.60;99.90;;;;;;5018928;28;20640;-45
2022/05/05 05:00:37;;;;;;;15.47;8.37;;;8.60;99.90;;;;;;5018776;28;20190;-45
2022/05/05 05:03:02;;;;;;;19.40;9.30;;;8.60;99.90;;;;;;5019084;28;20262;-47
2022/05/05 05:05:28;;;;;;;15.77;8.50;;;8.60;99.90;;;;;;5017372;28;20193;-45
2022/05/05 05:07:53;;;;;;;15.67;8.23;;;8.70;99.90;;;;;;5018200;28;20208;-42
2022/05/05 05:10:19;;;;;;;20.77;9.60;;;8.70;99.90;;;;;;5017110;28;20287;-46
2022/05/05 05:12:45;;;;;;;15.17;8.93;;;8.70;99.90;;;;;;5017639;28;20189;-45
2022/05/05 05:15:10;;;;;;;15.07;8.33;;;8.70;99.90;;;;;;5017375;28;20244;-45
2022/05/05 05:17:36;;;;;;;14.73;9.10;;;8.80;99.90;;;;;;5016919;28;20197;-45
2022/05/05 05:20:03;;;;;;;13.43;8.77;;;8.80;99.90;;;;;;5017423;28;20284;-43
2022/05/05 05:22:29;;;;;;;18.53;9.20;;;8.80;99.90;;;;;;5017499;28;20213;-44
2022/05/05 05:24:54;;;;;;;20.27;9.57;;;8.90;99.90;;;;;;5016899;28;20182;-45
2022/05/05 05:27:20;;;;;;;13.73;8.77;;;8.90;99.90;;;;;;5017250;28;20333;-44
2022/05/05 05:29:46;;;;;;;15.70;8.87;;;9.00;99.90;;;;;;5016620;28;20545;-43
2022/05/05 05:32:11;;;;;;;16.23;8.80;;;9.10;99.90;;;;;;5016716;28;20174;-45
2022/05/05 05:34:37;;;;;;;17.63;8.87;;;9.10;99.90;;;;;;5017158;28;20182;-45
2022/05/05 05:37:03;;;;;;;17.80;9.93;;;9.20;99.90;;;;;;5016700;28;20811;-45
2022/05/05 05:39:29;;;;;;;20.33;10.70;;;9.30;99.90;;;;;;5017218;28;20173;-46
2022/05/05 05:41:55;;;;;;;18.87;9.80;;;9.40;99.90;;;;;;5016173;28;20227;-44
2022/05/05 05:44:21;;;;;;;17.40;9.33;;;9.50;99.90;;;;;;5016091;28;20181;-44
2022/05/05 05:46:46;;;;;;;19.47;10.47;;;9.60;99.90;;;;;;5016657;28;20276;-43
2022/05/05 05:49:12;;;;;;;18.50;9.63;;;9.60;99.90;;;;;;5017868;28;20182;-43
2022/05/05 05:51:38;;;;;;;24.60;10.43;;;9.80;99.90;;;;;;5017148;28;20197;-43
2022/05/05 05:54:04;;;;;;;17.07;9.80;;;9.90;99.90;;;;;;5016831;28;20181;-45
2022/05/05 05:56:30;;;;;;;18.17;9.67;;;10.00;99.90;;;;;;5016739;28;20188;-44
2022/05/05 05:58:56;;;;;;;19.50;10.80;;;10.10;99.90;;;;;;5016606;28;20646;-43
2022/05/05 06:03:53;;;;;;;24.10;11.07;;;10.20;99.90;;;;;;5016636;28;20284;-45
2022/05/05 06:04:09;;;;;;;20.07;11.23;;;10.30;99.90;;;;;;5016146;28;20177;-45
2022/05/05 06:06:35;;;;;;;19.10;11.07;;;10.50;99.90;;;;;;5016718;28;20571;-44
2022/05/05 06:09:00;;;;;;;16.57;10.47;;;10.50;99.90;;;;;;5016595;28;20178;-45
2022/05/05 06:11:26;;;;;;;21.60;10.83;;;10.60;99.90;;;;;;5015856;28;20205;-42
2022/05/05 06:13:52;;;;;;;22.10;11.63;;;10.70;99.90;;;;;;5016047;28;20193;-45
2022/05/05 06:16:17;;;;;;;16.40;10.03;;;10.80;99.90;;;;;;5017586;28;20239;-46
2022/05/05 06:18:43;;;;;;;20.00;11.33;;;10.90;99.90;;;;;;5017114;28;20539;-44
2022/05/05 06:21:09;;;;;;;19.93;11.47;;;11.10;99.90;;;;;;5017479;28;20187;-43
2022/05/05 06:23:37;;;;;;;19.87;10.93;;;11.20;99.90;;;;;;5017115;28;20254;-44
2022/05/05 06:26:05;;;;;;;17.57;10.83;;;11.40;99.90;;;;;;5017942;28;20650;-44
2022/05/05 06:28:32;;;;;;;19.37;11.70;;;11.60;99.90;;;;;;5018031;28;20261;-44
2022/05/05 06:30:58;;;;;;;18.53;11.17;;;11.70;99.90;;;;;;5017271;28;20199;-46
2022/05/05 06:33:24;;;;;;;25.17;11.83;;;11.80;99.90;;;;;;5018014;28;20190;-45
2022/05/05 06:35:49;;;;;;;21.10;12.17;;;12.00;99.90;;;;;;5017178;28;20179;-43
2022/05/05 06:38:16;;;;;;;24.37;11.60;;;12.00;99.90;;;;;;5017808;28;20289;-44
2022/05/05 06:40:42;;;;;;;21.10;11.70;;;12.10;99.90;;;;;;5017516;28;20205;-45
2022/05/05 06:43:08;;;;;;;18.77;11.20;;;12.20;99.90;;;;;;5017916;28;20183;-45
2022/05/05 06:45:33;;;;;;;19.80;11.73;;;12.30;99.90;;;;;;5018385;28;20254;-44
2022/05/05 06:48:01;;;;;;;17.33;10.87;;;12.40;99.90;;;;;;5018124;28;20198;-44
2022/05/05 06:50:28;;;;;;;17.87;11.00;;;12.50;99.90;;;;;;5017682;28;20598;-46
2022/05/05 06:52:54;;;;;;;18.50;11.10;;;12.70;99.90;;;;;;5017292;28;20184;-45
2022/05/05 06:55:20;;;;;;;19.50;11.47;;;12.80;99.90;;;;;;5016937;28;20185;-46
2022/05/05 06:57:46;;;;;;;21.10;11.07;;;12.90;99.90;;;;;;5016349;28;20338;-45
2022/05/05 07:00:13;;;;;;;18.47;11.10;;;12.90;99.90;;;;;;5016216;28;20235;-44
2022/05/05 07:02:39;;;;;;;19.17;11.00;;;13.00;99.90;;;;;;5016465;28;20205;-47
2022/05/05 07:05:23;;;;;;;18.33;11.43;;;13.10;99.90;;;;;;5016226;28;20189;-45
2022/05/05 07:07:49;;;;;;;19.17;10.90;;;13.10;99.90;;;;;;5015637;28;20215;-45
2022/05/05 07:12:58;;;;;;;18.57;11.23;;;13.20;99.90;;;;;;5013998;28;20177;-45
2022/05/05 07:15:24;;;;;;;19.37;11.63;;;13.20;99.90;;;;;;5013479;28;20177;-45
2022/05/05 07:17:50;;;;;;;19.00;11.07;;;13.30;99.90;;;;;;5013625;28;20201;-45
2022/05/05 07:20:15;;;;;;;20.13;11.33;;;13.40;99.90;;;;;;5013404;28;20236;-44
2022/05/05 07:22:41;;;;;;;15.43;10.10;;;13.50;99.90;;;;;;5013653;28;20185;-44
2022/05/05 07:25:07;;;;;;;19.77;11.90;;;13.70;99.90;;;;;;5013893;28;20197;-44
2022/05/05 07:27:33;;;;;;;19.37;11.70;;;13.80;99.90;;;;;;5017961;28;20217;-43
2022/05/05 07:29:59;;;;;;;18.23;10.70;;;14.00;99.90;;;;;;5019203;28;20245;-44
2022/05/05 07:32:25;;;;;;;17.70;10.23;;;14.10;99.90;;;;;;5017453;28;20547;-44
2022/05/05 07:34:51;;;;;;;16.90;10.47;;;14.30;99.90;;;;;;5013442;28;20252;-43
2022/05/05 07:37:16;;;;;;;19.67;10.70;;;14.50;99.90;;;;;;5013288;28;20587;-43
2022/05/05 07:39:42;;;;;;;18.93;9.97;;;14.70;99.90;;;;;;5013569;28;20216;-44
2022/05/05 07:42:08;;;;;;;16.97;9.57;;;14.70;99.90;;;;;;5013810;28;20324;-44
2022/05/05 07:44:34;;;;;;;21.90;9.70;;;14.80;99.90;;;;;;5017750;28;20181;-45
2022/05/05 07:46:59;;;;;;;15.00;9.80;;;14.90;99.90;;;;;;5017905;28;20255;-45
2022/05/05 07:49:25;;;;;;;16.20;10.43;;;14.90;99.90;;;;;;5017780;28;20171;-45
2022/05/05 07:51:52;;;;;;;16.83;8.93;;;15.10;99.90;;;;;;5017169;28;20212;-44
2022/05/05 07:57:04;;;;;;;16.57;10.00;;;15.10;99.90;;;;;;5015535;28;20789;-40
2022/05/05 07:59:30;;;;;;;17.03;9.40;;;15.10;99.90;;;;;;5013149;28;20199;-38
2022/05/05 08:01:56;;;;;;;13.90;8.47;;;15.20;99.90;;;;;;5012920;28;20196;-37
2022/05/05 08:04:22;;;;;;;17.03;9.43;;;15.20;99.90;;;;;;5013730;28;20182;-40
2022/05/05 08:06:48;;;;;;;19.60;9.23;;;15.30;99.90;;;;;;5016430;28;20673;-40
2022/05/05 08:09:14;;;;;;;19.23;9.20;;;15.30;99.90;;;;;;5016741;28;20660;-37
2022/05/05 08:11:39;;;;;;;20.80;9.73;;;15.40;99.90;;;;;;5016235;28;20220;-41
2022/05/05 08:14:06;;;;;;;15.40;8.67;;;15.40;99.90;;;;;;5016662;28;20201;-40
2022/05/05 08:16:32;;;;;;;13.90;9.47;;;15.50;99.90;;;;;;5016206;28;20656;-38
2022/05/05 08:18:58;;;;;;;19.67;9.63;;;15.50;99.90;;;;;;5014952;28;20181;-38
2022/05/05 08:21:24;;;;;;;18.27;9.53;;;15.70;99.90;;;;;;5016531;28;20661;-38
2022/05/05 08:28:28;;;;;;;13.80;8.73;;;15.90;99.90;;;;;;5016433;28;20541;-39
2022/05/05 08:29:19;;;;;;;13.40;8.50;;;16.20;99.90;;;;;;5016529;28;20236;-43
2022/05/05 08:31:45;;;;;;;18.47;9.17;;;16.20;99.90;;;;;;5015924;28;20205;-37
2022/05/05 08:34:11;;;;;;;13.20;8.17;;;16.40;99.90;;;;;;5016034;28;20550;-39
2022/05/05 08:36:37;;;;;;;16.20;8.57;;;16.50;99.90;;;;;;5016370;28;20220;-40
2022/05/05 08:39:03;;;;;;;16.50;8.80;;;16.60;99.90;;;;;;5016435;28;20174;-42
2022/05/05 08:41:30;;;;;;;12.83;8.17;;;16.60;99.90;;;;;;5016149;28;20609;-40
2022/05/05 08:43:55;;;;;;;15.20;7.30;;;16.60;99.90;;;;;;5016046;28;20188;-40
2022/05/05 08:46:25;;;;;;;16.70;7.20;;;16.60;99.90;;;;;;5015863;28;20185;-41
2022/05/05 08:48:53;;;;;;;14.93;8.40;;;16.60;99.90;;;;;;5015557;28;20668;-38
2022/05/05 08:51:21;;;;;;;13.60;7.03;;;16.90;99.90;;;;;;5015823;28;20609;-40
2022/05/05 08:53:53;;;;;;;11.93;7.13;;;17.20;99.90;;;;;;5015581;28;20605;-40
2022/05/05 08:56:19;;;;;;;15.20;7.73;;;17.30;99.90;;;;;;5014310;28;20169;-41
2022/05/05 08:58:45;;;;;;;15.97;7.67;;;17.30;99.90;;;;;;5015753;28;20573;-40
2022/05/05 09:01:10;;;;;;;16.13;8.00;;;17.20;99.90;;;;;;5015507;28;20583;-38
2022/05/05 09:03:37;;;;;;;17.20;8.20;;;17.30;99.90;;;;;;5015443;28;20213;-39
2022/05/05 09:06:04;;;;;;;13.23;6.93;;;17.40;99.90;;;;;;5015665;28;20181;-41
2022/05/05 09:08:33;;;;;;;16.67;7.77;;;17.40;99.90;;;;;;5015587;28;20209;-41
2022/05/05 09:11:04;;;;;;;15.37;8.50;;;17.70;99.90;;;;;;5015189;28;20202;-40
2022/05/05 09:13:36;;;;;;;16.70;7.73;;;17.70;99.90;;;;;;5014031;28;20201;-39
2022/05/05 09:16:03;;;;;;;16.53;8.30;;;17.60;99.90;;;;;;5014228;28;20646;-41
2022/05/05 09:18:32;;;;;;;12.73;7.07;;;17.60;99.90;;;;;;5015383;28;20259;-43
2022/05/05 09:21:03;;;;;;;12.17;7.13;;;17.90;99.90;;;;;;5015209;28;20178;-41
2022/05/05 09:23:36;;;;;;;14.93;7.60;;;18.30;99.90;;;;;;5015374;28;20637;-41
2022/05/05 09:26:08;;;;;;;14.63;7.23;;;18.60;99.90;;;;;;5014941;28;20537;-41
2022/05/05 09:28:37;;;;;;;13.33;7.60;;;18.60;99.90;;;;;;5015202;28;20209;-43
2022/05/05 09:31:08;;;;;;;13.07;7.33;;;18.60;99.90;;;;;;5015419;28;20208;-41
2022/05/05 09:33:36;;;;;;;13.83;7.13;;;18.60;99.90;;;;;;5015099;28;20185;-41
2022/05/05 09:36:04;;;;;;;12.40;7.67;;;18.50;99.90;;;;;;5014808;28;20185;-40
2022/05/05 09:38:50;;;;;;;14.33;7.33;;;18.40;99.90;;;;;;5014878;28;20666;-41
2022/05/05 09:41:20;;;;;;;12.30;7.10;;;18.50;99.90;;;;;;5014852;28;20181;-42
2022/05/05 09:43:46;;;;;;;16.03;7.77;;;18.40;99.90;;;;;;5015719;28;20180;-40
2022/05/05 09:46:25;;;;;;;12.87;7.37;;;18.40;99.90;;;;;;5015419;28;20185;-41
2022/05/05 09:48:51;;;;;;;20.60;7.73;;;18.60;99.90;;;;;;5014965;28;20220;-42
2022/05/05 09:51:18;;;;;;;13.73;8.40;;;18.70;99.90;;;;;;5014551;28;20288;-40
2022/05/05 09:59:30;;;;;;;13.47;7.63;;;18.30;99.90;;;;;;5015028;28;20216;-40
2022/05/05 10:02:05;;;;;;;14.83;7.47;;;18.30;99.90;;;;;;5014980;28;20162;-39
2022/05/05 10:04:33;;;;;;;19.10;7.00;;;18.40;99.90;;;;;;5014496;28;20223;-40
2022/05/05 10:07:02;;;;;;;15.70;7.57;;;18.60;99.90;;;;;;5014113;28;20216;-42
2022/05/05 10:09:28;;;;;;;14.93;8.57;;;18.50;99.90;;;;;;5014688;28;20185;-42
2022/05/05 10:11:54;;;;;;;14.97;8.37;;;18.50;99.90;;;;;;5014276;28;20201;-42
2022/05/05 10:14:20;;;;;;;13.30;8.20;;;18.40;99.90;;;;;;5014116;28;20170;-41
2022/05/05 10:16:46;;;;;;;13.47;7.83;;;18.30;99.90;;;;;;5014304;28;20193;-39
2022/05/05 10:19:12;;;;;;;17.60;7.60;;;18.40;99.90;;;;;;5012831;28;20177;-40
2022/05/05 10:21:59;;;;;;;14.93;7.90;;;18.60;99.90;;;;;;5014334;28;20181;-41
2022/05/05 10:24:34;;;;;;;11.30;7.00;;;18.80;99.90;;;;;;5013958;28;20158;-40
2022/05/05 10:27:01;;;;;;;9.57;6.63;;;18.90;99.90;;;;;;5013712;28;20200;-41
2022/05/05 10:29:41;;;;;;;12.60;7.30;;;18.90;99.90;;;;;;5014109;28;20600;-41
2022/05/05 10:32:07;;;;;;;12.73;7.07;;;18.90;99.90;;;;;;5013689;28;20220;-42
2022/05/05 10:34:32;;;;;;;13.30;7.47;;;19.00;99.90;;;;;;5014196;28;20206;-41
2022/05/05 10:37:00;;;;;;;10.80;7.40;;;18.80;99.90;;;;;;5014257;28;20565;-39
2022/05/05 10:39:43;;;;;;;9.37;6.60;;;18.80;99.90;;;;;;5014021;28;20186;-40
2022/05/05 10:42:40;;;;;;;12.23;7.37;;;18.90;99.90;;;;;;5013834;28;20173;-41
2022/05/05 10:45:27;;;;;;;12.60;7.07;;;18.90;99.90;;;;;;5014321;28;20161;-41
2022/05/05 10:47:54;;;;;;;9.93;6.17;;;18.90;99.90;;;;;;5013692;28;20207;-41
2022/05/05 10:50:54;;;;;;;12.73;5.13;;;19.00;99.90;;;;;;5013746;28;20237;-40
2022/05/05 10:53:31;;;;;;;8.87;7.00;;;19.20;99.90;;;;;;5013984;28;20245;-41
2022/05/05 10:56:01;;;;;;;9.30;6.77;;;19.40;99.90;;;;;;5013844;28;20188;-40
2022/05/05 10:59:03;;;;;;;9.53;6.63;;;19.50;99.90;;;;;;5013851;28;20189;-41
2022/05/05 11:01:41;;;;;;;11.63;7.57;;;19.80;99.90;;;;;;5014017;28;20169;-39
2022/05/05 11:04:24;;;;;;;10.47;7.10;;;19.70;99.90;;;;;;5013783;28;20637;-38
2022/05/05 11:07:30;;;;;;;13.77;6.93;;;19.70;99.90;;;;;;5013702;28;20213;-42
2022/05/05 11:09:57;;;;;;;11.53;6.90;;;19.50;99.90;;;;;;5013674;28;20153;-40
2022/05/05 11:12:24;;;;;;;10.17;6.73;;;19.50;99.90;;;;;;5013339;28;20197;-42
2022/05/05 11:23:46;;;;;;;10.60;7.23;;;20.50;99.90;;;;;;5013535;28;20176;-41
2022/05/05 11:26:20;;;;;;;13.43;8.10;;;20.70;99.90;;;;;;5013200;28;20588;-40
2022/05/05 11:28:47;;;;;;;9.20;6.60;;;20.70;99.90;;;;;;5013265;28;20184;-38
2022/05/05 11:31:31;;;;;;;14.30;6.93;;;20.60;99.90;;;;;;5013106;28;20209;-40
2022/05/05 11:34:00;;;;;;;10.50;6.60;;;20.50;99.90;;;;;;5012015;28;20181;-40
2022/05/05 11:36:37;;;;;;;10.50;6.47;;;20.50;99.90;;;;;;5013137;28;20189;-40
2022/05/05 11:39:03;;;;;;;12.37;6.87;;;20.60;99.90;;;;;;5013599;28;20166;-40
2022/05/05 11:41:30;;;;;;;10.73;6.87;;;20.60;99.90;;;;;;5017824;28;20189;-42
2022/05/05 11:46:40;;;;;;;9.67;7.40;;;20.80;99.90;;;;;;5017200;28;20666;-40
2022/05/05 11:49:08;;;;;;;11.57;7.13;;;20.60;99.90;;;;;;5016857;28;20579;-42
2022/05/05 11:51:34;;;;;;;12.07;6.77;;;20.40;99.90;;;;;;5017007;28;20205;-41
2022/05/05 11:54:12;;;;;;;10.17;6.57;;;20.40;99.90;;;;;;5017090;28;20224;-39
2022/05/05 11:56:47;;;;;;;8.40;6.13;;;20.20;99.90;;;;;;5017383;28;20201;-41
2022/05/05 12:02:08;;;;;;;10.10;6.93;;;20.40;99.90;;;;;;5016782;28;20169;-40
2022/05/05 12:04:35;;;;;;;10.40;7.03;;;20.80;99.90;;;;;;5016598;28;20588;-41
2022/05/05 12:07:01;;;;;;;10.40;7.97;;;21.20;99.90;;;;;;5016737;28;20225;-41
2022/05/05 12:09:27;;;;;;;10.00;6.70;;;21.50;99.90;;;;;;5016386;28;20189;-39
2022/05/05 12:11:54;;;;;;;14.90;7.10;;;21.80;99.90;;;;;;5016590;28;20212;-41
2022/05/05 12:14:23;;;;;;;11.63;7.50;;;22.00;99.90;;;;;;5016427;28;20225;-40
2022/05/05 12:16:51;;;;;;;9.53;7.97;;;22.10;99.90;;;;;;5016314;28;20190;-41
2022/05/05 12:19:19;;;;;;;13.10;7.63;;;21.90;99.90;;;;;;5016537;28;20188;-42
2022/05/05 12:21:55;;;;;;;15.50;8.10;;;21.60;99.90;;;;;;5016283;28;20188;-42
2022/05/05 12:24:25;;;;;;;12.60;7.83;;;21.20;99.90;;;;;;5016502;28;20239;-41
2022/05/05 12:27:11;;;;;;;12.87;7.70;;;21.00;99.90;;;;;;5016517;28;20243;-46
2022/05/05 12:29:46;;;;;;;9.77;7.50;;;20.90;99.90;;;;;;5016213;28;20185;-46
2022/05/05 12:32:16;;;;;;;13.20;7.70;;;20.90;99.90;;;;;;5016531;28;20176;-47
2022/05/05 12:34:42;;;;;;;14.83;8.90;;;21.00;99.90;;;;;;5016338;28;20181;-48
2022/05/05 12:37:11;;;;;;;11.57;8.13;;;21.20;99.90;;;;;;5015908;28;20229;-48
2022/05/05 12:39:57;;;;;;;8.50;7.40;;;21.20;99.90;;;;;;5016161;28;20252;-48
2022/05/05 12:42:38;;;;;;;11.43;7.20;;;21.50;99.90;;;;;;5016145;28;20178;-46
2022/05/05 12:45:04;;;;;;;9.10;7.03;;;21.70;99.90;;;;;;5016202;28;20170;-46
2022/05/05 12:47:30;;;;;;;18.27;8.13;;;21.70;99.90;;;;;;5015835;28;20194;-46
2022/05/05 12:49:55;;;;;;;11.53;7.63;;;21.50;99.90;;;;;;5015889;28;20174;-47
2022/05/05 13:00:49;;;;;;;9.33;6.77;;;20.30;99.90;;;;;;5016024;28;20696;-46
2022/05/05 13:03:15;;;;;;;11.63;7.07;;;20.30;99.90;;;;;;5015794;28;20169;-47
2022/05/05 13:05:41;;;;;;;9.23;6.70;;;20.60;99.90;;;;;;5015950;28;20185;-46
2022/05/05 13:08:07;;;;;;;11.47;7.23;;;20.80;99.90;;;;;;5015887;28;20197;-47
2022/05/05 13:10:33;;;;;;;10.27;6.70;;;20.90;99.90;;;;;;5015671;28;20668;-47
2022/05/05 13:12:58;;;;;;;8.43;6.73;;;21.10;99.90;;;;;;5015583;28;20631;-46
2022/05/05 13:15:24;;;;;;;9.37;7.03;;;21.30;99.90;;;;;;5015746;28;20253;-47
2022/05/05 13:17:49;;;;;;;9.30;6.83;;;21.50;99.90;;;;;;5015528;28;20205;-49
2022/05/05 13:20:15;;;;;;;11.83;7.67;;;21.70;99.90;;;;;;5015744;28;20177;-49
2022/05/05 13:22:41;;;;;;;14.93;7.03;;;21.80;99.90;;;;;;5015620;28;20612;-47
2022/05/05 13:25:07;;;;;;;8.90;6.80;;;21.80;99.90;;;;;;5015478;28;20224;-47
2022/05/05 13:27:33;;;;;;;9.13;6.70;;;21.70;99.90;;;;;;5015127;28;20220;-48
2022/05/05 13:29:58;;;;;;;10.77;6.90;;;21.50;99.90;;;;;;5013846;28;20201;-47